createdAt,value
2023-01-08T00:00:57.175Z,6.70
2023-01-08T00:01:57.532Z,6.70
2023-01-08T00:02:57.872Z,6.60
2023-01-08T00:03:58.124Z,6.80
2023-01-08T00:04:58.316Z,7.20
2023-01-08T00:05:58.610Z,6.70
2023-01-08T00:06:59.011Z,6.70
2023-01-08T00:07:59.183Z,7.00
2023-01-08T00:08:59.584Z,6.90
2023-01-08T00:09:59.791Z,7.10
2023-01-08T00:11:00.086Z,7.20
2023-01-08T00:12:00.496Z,6.50
2023-01-08T00:13:00.723Z,6.60
2023-01-08T00:14:00.985Z,7.10
2023-01-08T00:15:01.420Z,7.10
2023-01-08T00:16:01.508Z,7.10
2023-01-08T00:17:01.795Z,7.50
2023-01-08T00:18:02.149Z,7.30
2023-01-08T00:19:02.356Z,7.10
2023-01-08T00:20:02.711Z,6.80
2023-01-08T00:21:03.010Z,6.90
2023-01-08T00:22:03.308Z,7.30
2023-01-08T00:23:03.595Z,6.80
2023-01-08T00:24:03.830Z,6.80
2023-01-08T00:25:04.230Z,6.20
2023-01-08T00:26:04.474Z,6.70
2023-01-08T00:27:04.766Z,6.50
2023-01-08T00:28:05.082Z,6.50
2023-01-08T00:29:05.400Z,6.20
2023-01-08T00:30:05.751Z,6.30
2023-01-08T00:31:06.132Z,6.50
2023-01-08T00:32:06.375Z,6.10
2023-01-08T00:33:06.616Z,6.50
2023-01-08T00:34:06.965Z,6.30
2023-01-08T00:35:07.239Z,5.90
2023-01-08T00:36:07.609Z,6.20
2023-01-08T00:37:07.851Z,5.60
2023-01-08T00:38:08.225Z,5.90
2023-01-08T00:39:08.488Z,6.90
2023-01-08T00:40:08.799Z,6.40
2023-01-08T00:41:09.122Z,6.10
2023-01-08T00:42:09.422Z,6.10
2023-01-08T00:43:09.776Z,6.20
2023-01-08T00:44:10.073Z,6.00
2023-01-08T00:45:10.377Z,6.30
2023-01-08T00:46:10.756Z,6.00
2023-01-08T00:47:11.001Z,6.00
2023-01-08T00:48:11.388Z,6.40
2023-01-08T00:49:11.611Z,5.70
2023-01-08T00:50:11.945Z,6.10
2023-01-08T00:51:12.129Z,5.60
2023-01-08T00:52:12.390Z,6.50
2023-01-08T00:53:12.797Z,6.40
2023-01-08T00:54:13.005Z,6.20
2023-01-08T00:55:13.277Z,6.20
2023-01-08T00:56:13.641Z,6.20
2023-01-08T00:57:13.774Z,6.60
2023-01-08T00:58:14.192Z,6.30
2023-01-08T00:59:14.448Z,6.40
2023-01-08T01:00:14.708Z,6.50
2023-01-08T01:01:15.053Z,6.10
2023-01-08T01:02:15.257Z,6.20
2023-01-08T01:03:15.428Z,6.10
2023-01-08T01:04:15.761Z,6.00
2023-01-08T01:05:15.982Z,6.00
2023-01-08T01:06:16.375Z,5.90
2023-01-08T01:07:16.579Z,5.90
2023-01-08T01:08:16.875Z,6.10
2023-01-08T01:09:17.182Z,5.90
2023-01-08T01:10:17.412Z,5.90
2023-01-08T01:11:17.754Z,6.10
2023-01-08T01:12:17.963Z,5.90
2023-01-08T01:13:18.270Z,6.10
2023-01-08T01:14:18.495Z,6.10
2023-01-08T01:15:18.841Z,6.00
2023-01-08T01:16:19.283Z,6.00
2023-01-08T01:17:19.439Z,5.80
2023-01-08T01:18:19.691Z,6.00
2023-01-08T01:19:20.022Z,6.00
2023-01-08T01:20:20.365Z,6.30
2023-01-08T01:21:21.070Z,5.90
2023-01-08T01:22:20.873Z,6.20
2023-01-08T01:23:21.179Z,6.30
2023-01-08T01:24:22.327Z,6.10
2023-01-08T01:25:21.776Z,6.10
2023-01-08T01:26:22.076Z,5.90
2023-01-08T01:27:22.362Z,5.90
2023-01-08T01:28:22.740Z,7.90
2023-01-08T01:29:23.036Z,6.80
2023-01-08T01:30:23.338Z,6.10
2023-01-08T01:31:23.614Z,8.10
2023-01-08T01:32:23.966Z,6.50
2023-01-08T01:33:24.182Z,7.00
2023-01-08T01:34:24.470Z,11.40
2023-01-08T01:35:24.834Z,7.40
2023-01-08T01:36:25.108Z,6.10
2023-01-08T01:37:25.365Z,6.20
2023-01-08T01:38:25.700Z,6.00
2023-01-08T01:39:26.007Z,6.30
2023-01-08T01:40:26.330Z,6.00
2023-01-08T01:41:26.628Z,6.50
2023-01-08T01:42:26.936Z,6.20
2023-01-08T01:43:27.295Z,6.60
2023-01-08T01:44:27.480Z,6.20
2023-01-08T01:45:27.837Z,6.00
2023-01-08T01:46:28.121Z,6.30
2023-01-08T01:47:28.332Z,6.10
2023-01-08T01:48:28.630Z,6.00
2023-01-08T01:49:28.900Z,6.00
2023-01-08T01:50:29.213Z,6.20
2023-01-08T01:51:29.471Z,7.80
2023-01-08T01:52:29.782Z,6.20
2023-01-08T01:53:30.114Z,8.40
2023-01-08T01:54:30.333Z,7.90
2023-01-08T01:55:30.645Z,7.10
2023-01-08T01:56:30.975Z,7.40
2023-01-08T01:57:31.305Z,5.90
2023-01-08T01:58:31.587Z,6.50
2023-01-08T01:59:31.914Z,6.00
2023-01-08T02:00:32.204Z,6.00
2023-01-08T02:01:32.603Z,5.70
2023-01-08T02:02:32.894Z,5.70
2023-01-08T02:03:33.014Z,6.10
2023-01-08T02:04:33.327Z,5.50
2023-01-08T02:05:33.595Z,6.00
2023-01-08T02:06:33.864Z,5.90
2023-01-08T02:07:34.166Z,6.00
2023-01-08T02:08:34.514Z,5.70
2023-01-08T02:09:34.814Z,5.80
2023-01-08T02:10:35.148Z,5.60
2023-01-08T02:11:35.431Z,5.60
2023-01-08T02:12:36.145Z,5.80
2023-01-08T02:13:35.989Z,5.60
2023-01-08T02:14:37.302Z,5.80
2023-01-08T02:15:36.551Z,5.80
2023-01-08T02:16:36.908Z,5.60
2023-01-08T02:17:37.158Z,5.60
2023-01-08T02:18:37.364Z,8.00
2023-01-08T02:19:37.648Z,5.80
2023-01-08T02:20:37.959Z,5.50
2023-01-08T02:21:38.258Z,5.70
2023-01-08T02:22:38.636Z,5.40
2023-01-08T02:23:38.824Z,5.40
2023-01-08T02:24:39.188Z,5.70
2023-01-08T02:25:39.336Z,5.20
2023-01-08T02:26:39.698Z,5.30
2023-01-08T02:27:40.051Z,5.30
2023-01-08T02:28:40.334Z,5.50
2023-01-08T02:29:40.501Z,5.20
2023-01-08T02:30:40.879Z,5.60
2023-01-08T02:31:41.103Z,5.70
2023-01-08T02:32:41.516Z,5.70
2023-01-08T02:33:41.731Z,5.70
2023-01-08T02:34:42.063Z,5.40
2023-01-08T02:35:42.296Z,5.30
2023-01-08T02:36:42.578Z,5.60
2023-01-08T02:37:42.897Z,5.80
2023-01-08T02:38:43.158Z,5.60
2023-01-08T02:39:43.513Z,5.70
2023-01-08T02:40:43.836Z,5.70
2023-01-08T02:41:44.144Z,5.60
2023-01-08T02:42:44.385Z,5.90
2023-01-08T02:43:44.753Z,6.80
2023-01-08T02:44:45.013Z,5.60
2023-01-08T02:45:45.362Z,5.40
2023-01-08T02:46:45.752Z,5.20
2023-01-08T02:47:46.024Z,5.70
2023-01-08T02:48:46.222Z,5.10
2023-01-08T02:49:46.513Z,5.30
2023-01-08T02:50:46.813Z,5.20
2023-01-08T02:51:47.119Z,5.40
2023-01-08T02:52:47.370Z,5.30
2023-01-08T02:53:47.759Z,5.40
2023-01-08T02:54:48.503Z,5.50
2023-01-08T02:55:48.368Z,5.50
2023-01-08T02:56:48.609Z,5.40
2023-01-08T02:57:48.951Z,5.50
2023-01-08T02:58:49.422Z,5.40
2023-01-08T02:59:49.951Z,5.70
2023-01-08T03:00:49.850Z,5.30
2023-01-08T03:01:50.216Z,5.30
2023-01-08T03:02:50.729Z,5.50
2023-01-08T03:03:50.625Z,5.40
2023-01-08T03:04:50.913Z,5.40
2023-01-08T03:05:51.243Z,5.30
2023-01-08T03:06:51.599Z,5.40
2023-01-08T03:07:51.837Z,5.60
2023-01-08T03:08:52.151Z,5.50
2023-01-08T03:09:52.458Z,5.30
2023-01-08T03:10:52.746Z,5.30
2023-01-08T03:11:53.040Z,5.30
2023-01-08T03:12:53.410Z,5.70
2023-01-08T03:13:53.801Z,5.60
2023-01-08T03:14:54.067Z,5.40
2023-01-08T03:15:54.224Z,5.70
2023-01-08T03:16:54.620Z,5.50
2023-01-08T03:17:54.809Z,5.60
2023-01-08T03:18:55.135Z,5.40
2023-01-08T03:19:55.416Z,5.40
2023-01-08T03:20:55.757Z,5.60
2023-01-08T03:21:56.083Z,5.60
2023-01-08T03:22:56.390Z,5.80
2023-01-08T03:23:56.718Z,5.80
2023-01-08T03:24:57.053Z,5.70
2023-01-08T03:25:57.376Z,5.80
2023-01-08T03:26:57.722Z,5.60
2023-01-08T03:27:58.008Z,5.50
2023-01-08T03:28:58.341Z,5.70
2023-01-08T03:29:58.657Z,5.20
2023-01-08T03:30:58.999Z,5.40
2023-01-08T03:31:59.248Z,5.30
2023-01-08T03:32:59.465Z,5.40
2023-01-08T03:33:59.717Z,6.00
2023-01-08T03:35:00.037Z,5.40
2023-01-08T03:36:00.326Z,5.10
2023-01-08T03:37:00.677Z,5.80
2023-01-08T03:38:00.962Z,5.70
2023-01-08T03:39:01.339Z,5.50
2023-01-08T03:40:01.636Z,5.90
2023-01-08T03:41:01.965Z,5.70
2023-01-08T03:42:02.277Z,5.30
2023-01-08T03:43:02.590Z,5.40
2023-01-08T03:44:02.905Z,5.50
2023-01-08T03:45:03.203Z,5.40
2023-01-08T03:46:03.644Z,5.30
2023-01-08T03:47:03.800Z,5.40
2023-01-08T03:48:04.122Z,5.70
2023-01-08T03:49:04.347Z,5.50
2023-01-08T03:50:04.670Z,5.50
2023-01-08T03:51:05.027Z,5.50
2023-01-08T03:52:05.195Z,5.60
2023-01-08T03:53:05.443Z,5.70
2023-01-08T03:54:05.791Z,5.60
2023-01-08T03:55:06.104Z,5.40
2023-01-08T03:56:06.406Z,5.30
2023-01-08T03:57:06.726Z,5.50
2023-01-08T03:58:07.017Z,5.60
2023-01-08T03:59:07.338Z,5.40
2023-01-08T04:00:07.760Z,5.70
2023-01-08T04:01:08.088Z,5.40
2023-01-08T04:02:08.401Z,5.50
2023-01-08T04:03:08.526Z,5.60
2023-01-08T04:04:08.975Z,5.30
2023-01-08T04:05:09.153Z,5.40
2023-01-08T04:06:09.416Z,5.50
2023-01-08T04:07:09.758Z,5.20
2023-01-08T04:08:10.110Z,5.50
2023-01-08T04:09:10.395Z,5.10
2023-01-08T04:10:10.713Z,5.00
2023-01-08T04:11:11.020Z,5.30
2023-01-08T04:12:11.334Z,5.10
2023-01-08T04:13:11.640Z,5.20
2023-01-08T04:14:11.796Z,5.30
2023-01-08T04:15:12.172Z,5.50
2023-01-08T04:16:12.454Z,5.50
2023-01-08T04:17:12.638Z,5.60
2023-01-08T04:18:12.974Z,5.20
2023-01-08T04:19:13.239Z,5.20
2023-01-08T04:20:13.533Z,5.20
2023-01-08T04:21:13.827Z,5.10
2023-01-08T04:22:14.100Z,5.10
2023-01-08T04:23:14.476Z,4.70
2023-01-08T04:24:14.665Z,5.30
2023-01-08T04:25:15.363Z,5.30
2023-01-08T04:26:15.271Z,4.80
2023-01-08T04:27:15.549Z,5.10
2023-01-08T04:28:15.920Z,4.70
2023-01-08T04:29:16.204Z,4.50
2023-01-08T04:30:16.538Z,4.60
2023-01-08T04:31:17.132Z,4.60
2023-01-08T04:32:17.143Z,4.70
2023-01-08T04:33:17.383Z,4.80
2023-01-08T04:34:17.670Z,4.70
2023-01-08T04:35:17.991Z,4.60
2023-01-08T04:36:18.264Z,4.70
2023-01-08T04:37:18.656Z,4.40
2023-01-08T04:38:18.963Z,4.60
2023-01-08T04:39:19.259Z,4.60
2023-01-08T04:40:19.483Z,4.40
2023-01-08T04:41:19.822Z,4.80
2023-01-08T04:42:20.019Z,4.70
2023-01-08T04:43:20.389Z,4.50
2023-01-08T04:44:20.658Z,4.80
2023-01-08T04:45:21.108Z,4.90
2023-01-08T04:46:21.381Z,4.60
2023-01-08T04:47:21.572Z,4.70
2023-01-08T04:48:21.736Z,4.40
2023-01-08T04:49:22.120Z,4.60
2023-01-08T04:50:22.271Z,4.30
2023-01-08T04:51:22.601Z,4.80
2023-01-08T04:52:22.879Z,4.70
2023-01-08T04:53:23.263Z,4.60
2023-01-08T04:54:23.436Z,4.70
2023-01-08T04:55:23.782Z,4.30
2023-01-08T04:56:24.030Z,4.70
2023-01-08T04:57:24.342Z,4.70
2023-01-08T04:58:24.672Z,4.80
2023-01-08T04:59:24.843Z,4.80
2023-01-08T05:00:25.147Z,4.70
2023-01-08T05:01:25.471Z,4.60
2023-01-08T05:02:25.869Z,5.10
2023-01-08T05:03:26.074Z,4.80
2023-01-08T05:04:26.232Z,5.10
2023-01-08T05:05:26.588Z,5.00
2023-01-08T05:06:26.739Z,4.80
2023-01-08T05:07:27.121Z,4.90
2023-01-08T05:08:27.418Z,5.30
2023-01-08T05:09:27.743Z,5.10
2023-01-08T05:10:28.022Z,5.00
2023-01-08T05:11:28.404Z,4.80
2023-01-08T05:12:28.589Z,5.10
2023-01-08T05:13:28.901Z,5.30
2023-01-08T05:14:29.226Z,4.90
2023-01-08T05:15:29.575Z,4.80
2023-01-08T05:16:29.808Z,5.00
2023-01-08T05:17:30.161Z,4.90
2023-01-08T05:18:30.446Z,5.00
2023-01-08T05:19:30.749Z,5.00
2023-01-08T05:20:31.052Z,4.90
2023-01-08T05:21:31.360Z,5.00
2023-01-08T05:22:31.645Z,5.10
2023-01-08T05:23:31.978Z,5.00
2023-01-08T05:24:32.683Z,5.10
2023-01-08T05:25:32.543Z,5.20
2023-01-08T05:26:32.805Z,4.90
2023-01-08T05:27:33.135Z,4.90
2023-01-08T05:28:33.448Z,4.90
2023-01-08T05:29:33.841Z,5.20
2023-01-08T05:30:34.161Z,5.60
2023-01-08T05:31:34.402Z,5.00
2023-01-08T05:32:34.601Z,5.30
2023-01-08T05:33:34.889Z,5.20
2023-01-08T05:34:35.190Z,5.20
2023-01-08T05:35:35.641Z,5.30
2023-01-08T05:36:35.852Z,5.10
2023-01-08T05:37:36.152Z,5.40
2023-01-08T05:38:36.451Z,5.30
2023-01-08T05:39:36.795Z,5.30
2023-01-08T05:40:37.144Z,5.00
2023-01-08T05:41:37.445Z,5.30
2023-01-08T05:42:37.740Z,5.60
2023-01-08T05:43:38.123Z,5.40
2023-01-08T05:44:38.378Z,5.20
2023-01-08T05:45:38.749Z,5.50
2023-01-08T05:46:39.105Z,5.20
2023-01-08T05:47:39.405Z,5.50
2023-01-08T05:48:39.661Z,5.60
2023-01-08T05:49:39.921Z,5.50
2023-01-08T05:50:40.348Z,5.60
2023-01-08T05:51:40.548Z,5.50
2023-01-08T05:52:40.806Z,5.70
2023-01-08T05:53:41.172Z,5.40
2023-01-08T05:54:41.469Z,5.50
2023-01-08T05:55:41.885Z,5.50
2023-01-08T05:56:42.080Z,5.20
2023-01-08T05:57:42.387Z,5.50
2023-01-08T05:58:42.673Z,5.40
2023-01-08T05:59:43.077Z,5.60
2023-01-08T06:00:43.252Z,5.60
2023-01-08T06:01:43.630Z,5.40
2023-01-08T06:02:43.825Z,5.60
2023-01-08T06:03:44.163Z,5.80
2023-01-08T06:04:44.434Z,5.30
2023-01-08T06:05:44.745Z,5.60
2023-01-08T06:06:45.058Z,5.80
2023-01-08T06:07:45.361Z,5.30
2023-01-08T06:08:45.671Z,5.40
2023-01-08T06:09:45.965Z,5.70
2023-01-08T06:10:46.296Z,5.70
2023-01-08T06:11:46.628Z,5.30
2023-01-08T06:12:46.934Z,5.50
2023-01-08T06:13:47.225Z,6.10
2023-01-08T06:14:47.587Z,5.90
2023-01-08T06:15:47.908Z,5.80
2023-01-08T06:16:48.153Z,5.50
2023-01-08T06:17:48.464Z,5.80
2023-01-08T06:18:48.630Z,5.50
2023-01-08T06:19:48.984Z,5.10
2023-01-08T06:20:49.198Z,5.70
2023-01-08T06:21:49.453Z,5.40
2023-01-08T06:22:49.741Z,5.50
2023-01-08T06:23:50.049Z,5.90
2023-01-08T06:24:50.374Z,5.80
2023-01-08T06:25:50.731Z,5.60
2023-01-08T06:26:50.962Z,5.50
2023-01-08T06:27:51.150Z,5.30
2023-01-08T06:28:51.477Z,5.60
2023-01-08T06:29:51.701Z,5.80
2023-01-08T06:30:52.063Z,5.80
2023-01-08T06:31:52.291Z,5.50
2023-01-08T06:32:52.483Z,5.60
2023-01-08T06:33:52.784Z,5.40
2023-01-08T06:34:53.906Z,6.00
2023-01-08T06:35:53.476Z,5.60
2023-01-08T06:36:53.688Z,5.60
2023-01-08T06:37:53.961Z,5.80
2023-01-08T06:38:54.278Z,5.80
2023-01-08T06:39:54.593Z,5.40
2023-01-08T06:40:54.820Z,5.80
2023-01-08T06:41:55.190Z,5.50
2023-01-08T06:42:55.548Z,5.40
2023-01-08T06:43:55.870Z,5.50
2023-01-08T06:44:56.167Z,5.40
2023-01-08T06:45:56.496Z,5.70
2023-01-08T06:46:56.810Z,5.40
2023-01-08T06:47:57.066Z,5.40
2023-01-08T06:48:57.244Z,5.50
2023-01-08T06:49:57.645Z,5.50
2023-01-08T06:50:57.884Z,5.80
2023-01-08T06:51:58.165Z,5.30
2023-01-08T06:52:58.300Z,5.40
2023-01-08T06:53:58.669Z,5.10
2023-01-08T06:54:58.931Z,5.70
2023-01-08T06:55:59.245Z,5.40
2023-01-08T06:56:59.652Z,5.20
2023-01-08T06:57:59.827Z,5.40
2023-01-08T06:59:00.085Z,5.20
2023-01-08T07:00:00.364Z,5.10
2023-01-08T07:01:00.539Z,5.10
2023-01-08T07:02:01.145Z,5.20
2023-01-08T07:03:01.384Z,5.40
2023-01-08T07:04:01.504Z,5.30
2023-01-08T07:05:01.921Z,5.30
2023-01-08T07:06:02.063Z,5.00
2023-01-08T07:07:02.343Z,5.20
2023-01-08T07:08:02.502Z,5.20
2023-01-08T07:09:02.872Z,5.00
2023-01-08T07:10:03.128Z,5.50
2023-01-08T07:11:03.344Z,4.70
2023-01-08T07:12:03.601Z,5.00
2023-01-08T07:13:03.835Z,5.30
2023-01-08T07:14:04.147Z,5.30
2023-01-08T07:15:04.325Z,5.20
2023-01-08T07:16:04.745Z,5.10
2023-01-08T07:17:04.932Z,5.20
2023-01-08T07:18:05.184Z,5.10
2023-01-08T07:19:05.415Z,4.80
2023-01-08T07:20:05.704Z,5.00
2023-01-08T07:21:05.893Z,5.00
2023-01-08T07:22:06.283Z,5.10
2023-01-08T07:23:06.543Z,5.10
2023-01-08T07:24:06.793Z,4.90
2023-01-08T07:25:07.043Z,5.30
2023-01-08T07:26:07.290Z,4.50
2023-01-08T07:27:07.552Z,4.80
2023-01-08T07:28:07.785Z,4.90
2023-01-08T07:29:08.110Z,4.50
2023-01-08T07:30:12.873Z,4.80
2023-01-08T07:31:09.604Z,4.80
2023-01-08T07:32:08.844Z,4.70
2023-01-08T07:33:09.114Z,4.60
2023-01-08T07:34:09.448Z,4.80
2023-01-08T07:35:09.720Z,4.70
2023-01-08T07:36:09.955Z,4.70
2023-01-08T07:37:10.181Z,4.60
2023-01-08T07:38:10.436Z,4.80
2023-01-08T07:39:10.688Z,4.80
2023-01-08T07:40:10.979Z,4.70
2023-01-08T07:41:11.208Z,4.60
2023-01-08T07:42:11.460Z,4.40
2023-01-08T07:43:11.740Z,4.50
2023-01-08T07:44:11.966Z,4.50
2023-01-08T07:45:12.192Z,4.70
2023-01-08T07:46:13.968Z,4.60
2023-01-08T07:47:12.750Z,4.50
2023-01-08T07:48:14.011Z,4.80
2023-01-08T07:49:13.405Z,4.50
2023-01-08T07:50:13.772Z,4.80
2023-01-08T07:51:14.026Z,4.50
2023-01-08T07:52:14.336Z,4.70
2023-01-08T07:53:14.535Z,4.40
2023-01-08T07:54:14.854Z,4.50
2023-01-08T07:55:15.019Z,4.60
2023-01-08T07:56:15.438Z,4.50
2023-01-08T07:57:15.605Z,4.70
2023-01-08T07:58:15.859Z,4.40
2023-01-08T07:59:16.142Z,4.70
2023-01-08T08:00:16.441Z,4.40
2023-01-08T08:01:16.720Z,5.00
2023-01-08T08:02:17.103Z,4.50
2023-01-08T08:03:17.262Z,4.40
2023-01-08T08:04:17.484Z,4.50
2023-01-08T08:05:17.727Z,4.50
2023-01-08T08:06:18.010Z,4.70
2023-01-08T08:07:18.272Z,4.40
2023-01-08T08:08:18.525Z,4.70
2023-01-08T08:09:18.783Z,4.90
2023-01-08T08:10:20.049Z,4.60
2023-01-08T08:11:19.293Z,4.50
2023-01-08T08:12:19.555Z,4.40
2023-01-08T08:13:19.784Z,4.80
2023-01-08T08:14:20.056Z,4.20
2023-01-08T08:15:20.349Z,4.50
2023-01-08T08:16:20.673Z,4.30
2023-01-08T08:17:20.898Z,4.60
2023-01-08T08:18:21.167Z,4.60
2023-01-08T08:19:21.480Z,4.60
2023-01-08T08:20:21.716Z,6.20
2023-01-08T08:21:21.966Z,6.60
2023-01-08T08:22:45.757Z,4.90
2023-01-08T08:23:43.588Z,4.60
2023-01-08T08:24:22.869Z,4.60
2023-01-08T08:25:23.059Z,4.70
2023-01-08T08:26:23.304Z,5.80
2023-01-08T08:27:23.533Z,5.70
2023-01-08T08:28:23.771Z,5.50
2023-01-08T08:29:24.027Z,4.70
2023-01-08T08:30:24.335Z,4.50
2023-01-08T08:31:24.611Z,5.00
2023-01-08T08:32:24.865Z,6.60
2023-01-08T08:33:25.113Z,5.50
2023-01-08T08:34:25.382Z,5.00
2023-01-08T08:35:25.679Z,5.50
2023-01-08T08:36:25.944Z,6.20
2023-01-08T08:37:26.139Z,4.90
2023-01-08T08:38:26.415Z,5.50
2023-01-08T08:39:26.671Z,4.60
2023-01-08T08:40:26.959Z,5.10
2023-01-08T08:41:27.236Z,5.30
2023-01-08T08:42:27.518Z,5.00
2023-01-08T08:43:27.752Z,5.20
2023-01-08T08:44:28.025Z,4.90
2023-01-08T08:45:28.276Z,5.40
2023-01-08T08:46:28.606Z,5.00
2023-01-08T08:47:28.832Z,4.60
2023-01-08T08:48:29.088Z,5.10
2023-01-08T08:49:29.297Z,8.70
2023-01-08T08:50:29.577Z,7.40
2023-01-08T08:51:29.859Z,6.70
2023-01-08T08:52:30.054Z,5.20
2023-01-08T08:53:30.316Z,5.10
2023-01-08T08:54:30.634Z,5.00
2023-01-08T08:55:30.902Z,5.40
2023-01-08T08:56:31.125Z,5.60
2023-01-08T08:57:31.416Z,5.30
2023-01-08T08:58:31.649Z,5.70
2023-01-08T08:59:31.914Z,5.00
2023-01-08T09:00:32.175Z,5.50
2023-01-08T09:01:32.560Z,5.20
2023-01-08T09:02:32.875Z,5.20
2023-01-08T09:03:33.021Z,5.30
2023-01-08T09:04:33.270Z,5.30
2023-01-08T09:05:33.510Z,5.20
2023-01-08T09:06:33.883Z,5.30
2023-01-08T09:07:34.216Z,5.30
2023-01-08T09:08:34.456Z,5.20
2023-01-08T09:09:34.693Z,5.30
2023-01-08T09:10:34.971Z,5.40
2023-01-08T09:11:35.238Z,5.20
2023-01-08T09:12:35.557Z,5.20
2023-01-08T09:13:35.746Z,5.50
2023-01-08T09:14:36.035Z,5.30
2023-01-08T09:15:36.224Z,5.20
2023-01-08T09:16:36.593Z,4.80
2023-01-08T09:17:36.812Z,5.00
2023-01-08T09:18:37.124Z,5.10
2023-01-08T09:19:37.304Z,5.20
2023-01-08T09:20:37.817Z,4.90
2023-01-08T09:21:38.297Z,5.20
2023-01-08T09:22:38.234Z,5.30
2023-01-08T09:23:38.477Z,4.80
2023-01-08T09:24:38.792Z,5.20
2023-01-08T09:25:38.986Z,5.10
2023-01-08T09:26:39.290Z,4.90
2023-01-08T09:27:39.519Z,5.10
2023-01-08T09:28:39.784Z,5.50
2023-01-08T09:29:40.054Z,4.60
2023-01-08T09:30:40.338Z,5.60
2023-01-08T09:31:40.633Z,5.00
2023-01-08T09:32:40.927Z,5.00
2023-01-08T09:33:41.220Z,4.90
2023-01-08T09:34:41.463Z,5.00
2023-01-08T09:35:41.707Z,4.90
2023-01-08T09:36:41.982Z,4.70
2023-01-08T09:37:42.210Z,5.20
2023-01-08T09:38:42.476Z,5.10
2023-01-08T09:39:47.986Z,4.80
2023-01-08T09:40:44.075Z,5.00
2023-01-08T09:41:43.401Z,4.80
2023-01-08T09:42:43.657Z,4.50
2023-01-08T09:43:43.846Z,4.80
2023-01-08T09:44:44.220Z,4.30
2023-01-08T09:45:44.398Z,4.90
2023-01-08T09:46:44.707Z,4.60
2023-01-08T09:47:45.045Z,4.40
2023-01-08T09:48:45.269Z,5.00
2023-01-08T09:49:50.415Z,4.90
2023-01-08T09:50:45.877Z,4.50
2023-01-08T09:51:46.071Z,4.30
2023-01-08T09:52:46.312Z,4.50
2023-01-08T09:53:46.542Z,4.10
2023-01-08T09:54:47.766Z,4.10
2023-01-08T09:55:47.969Z,4.40
2023-01-08T09:56:49.251Z,4.40
2023-01-08T09:57:47.863Z,4.00
2023-01-08T09:58:48.392Z,4.80
2023-01-08T09:59:48.684Z,4.80
2023-01-08T10:00:48.672Z,4.30
2023-01-08T10:01:49.009Z,4.40
2023-01-08T10:02:49.259Z,3.90
2023-01-08T10:03:49.475Z,4.00
2023-01-08T10:04:49.760Z,3.90
2023-01-08T10:05:49.952Z,3.90
2023-01-08T10:06:50.197Z,3.90
2023-01-08T10:07:50.417Z,4.00
2023-01-08T10:08:50.679Z,4.20
2023-01-08T10:09:50.923Z,3.90
2023-01-08T10:10:51.224Z,4.10
2023-01-08T10:11:51.435Z,3.90
2023-01-08T10:12:51.701Z,3.80
2023-01-08T10:13:52.057Z,3.70
2023-01-08T10:14:53.698Z,3.70
2023-01-08T10:15:52.566Z,3.60
2023-01-08T10:16:52.902Z,3.40
2023-01-08T10:17:53.103Z,3.40
2023-01-08T10:18:53.405Z,3.60
2023-01-08T10:19:53.603Z,3.40
2023-01-08T10:20:54.758Z,3.60
2023-01-08T10:21:54.525Z,3.30
2023-01-08T10:22:54.505Z,3.50
2023-01-08T10:23:54.801Z,3.40
2023-01-08T10:24:55.021Z,3.50
2023-01-08T10:25:55.496Z,3.30
2023-01-08T10:26:55.628Z,3.40
2023-01-08T10:27:56.072Z,3.70
2023-01-08T10:28:56.113Z,3.60
2023-01-08T10:29:56.475Z,3.30
2023-01-08T10:30:56.938Z,3.60
2023-01-08T10:31:57.135Z,3.20
2023-01-08T10:32:57.269Z,3.20
2023-01-08T10:33:57.513Z,3.30
2023-01-08T10:34:57.835Z,3.40
2023-01-08T10:35:58.095Z,3.20
2023-01-08T10:36:58.339Z,2.80
2023-01-08T10:37:59.679Z,3.10
2023-01-08T10:38:58.907Z,2.80
2023-01-08T10:39:59.092Z,2.80
2023-01-08T10:40:59.420Z,2.90
2023-01-08T10:42:00.591Z,2.90
2023-01-08T10:43:01.149Z,2.80
2023-01-08T10:44:00.435Z,3.00
2023-01-08T10:45:00.652Z,2.80
2023-01-08T10:46:00.796Z,3.20
2023-01-08T10:47:01.172Z,2.90
2023-01-08T10:48:01.368Z,3.20
2023-01-08T10:49:01.790Z,2.90
2023-01-08T10:50:02.014Z,2.50
2023-01-08T10:51:02.367Z,2.40
2023-01-08T10:52:02.510Z,2.70
2023-01-08T10:53:02.886Z,2.80
2023-01-08T10:54:03.031Z,2.70
2023-01-08T10:55:03.347Z,2.60
2023-01-08T10:56:03.632Z,2.90
2023-01-08T10:57:03.860Z,2.80
2023-01-08T10:58:04.860Z,2.60
2023-01-08T10:59:05.489Z,2.70
2023-01-08T11:00:04.626Z,2.40
2023-01-08T11:01:04.937Z,2.50
2023-01-08T11:02:05.285Z,2.60
2023-01-08T11:03:05.585Z,2.70
2023-01-08T11:04:05.792Z,2.50
2023-01-08T11:05:06.097Z,2.60
2023-01-08T11:06:06.338Z,3.00
2023-01-08T11:07:06.619Z,3.50
2023-01-08T11:08:07.001Z,2.80
2023-01-08T11:09:07.156Z,2.30
2023-01-08T11:10:07.763Z,5.20
2023-01-08T11:11:08.450Z,2.70
2023-01-08T11:12:08.062Z,2.80
2023-01-08T11:13:08.444Z,3.20
2023-01-08T11:14:08.588Z,2.50
2023-01-08T11:15:10.475Z,2.60
2023-01-08T11:16:09.263Z,2.20
2023-01-08T11:17:09.495Z,2.20
2023-01-08T11:18:09.605Z,2.60
2023-01-08T11:19:09.883Z,2.10
2023-01-08T11:20:10.262Z,2.30
2023-01-08T11:21:10.496Z,2.40
2023-01-08T11:22:10.822Z,2.30
2023-01-08T11:23:11.109Z,2.30
2023-01-08T11:24:11.486Z,2.20
2023-01-08T11:25:13.989Z,2.30
2023-01-08T11:26:12.103Z,2.10
2023-01-08T11:27:12.362Z,2.40
2023-01-08T11:28:12.619Z,2.00
2023-01-08T11:29:12.903Z,2.10
2023-01-08T11:30:13.125Z,2.00
2023-01-08T11:31:13.579Z,2.30
2023-01-08T11:32:14.146Z,2.10
2023-01-08T11:33:14.092Z,2.20
2023-01-08T11:34:14.430Z,2.20
2023-01-08T11:35:14.992Z,2.30
2023-01-08T11:36:15.106Z,2.20
2023-01-08T11:37:15.234Z,2.10
2023-01-08T11:38:15.523Z,2.10
2023-01-08T11:39:15.827Z,2.10
2023-01-08T11:40:16.047Z,2.30
2023-01-08T11:41:16.281Z,2.20
2023-01-08T11:42:16.560Z,2.10
2023-01-08T11:43:17.131Z,2.10
2023-01-08T11:44:17.090Z,2.30
2023-01-08T11:45:17.409Z,2.00
2023-01-08T11:46:17.651Z,2.10
2023-01-08T11:47:17.907Z,2.10
2023-01-08T11:48:18.183Z,2.00
2023-01-08T11:49:18.492Z,2.00
2023-01-08T11:50:18.885Z,2.00
2023-01-08T11:51:19.371Z,2.10
2023-01-08T11:52:19.550Z,2.10
2023-01-08T11:53:20.740Z,2.20
2023-01-08T11:54:20.152Z,2.20
2023-01-08T11:55:20.611Z,2.20
2023-01-08T11:56:20.701Z,1.90
2023-01-08T11:57:21.306Z,2.20
2023-01-08T11:58:21.232Z,2.10
2023-01-08T11:59:21.824Z,2.10
2023-01-08T12:00:21.763Z,2.50
2023-01-08T12:01:22.228Z,2.00
2023-01-08T12:02:22.514Z,2.20
2023-01-08T12:03:22.802Z,1.80
2023-01-08T12:04:22.931Z,2.30
2023-01-08T12:05:23.108Z,2.60
2023-01-08T12:06:23.237Z,2.40
2023-01-08T12:07:23.558Z,2.20
2023-01-08T12:08:24.135Z,1.90
2023-01-08T12:09:24.200Z,2.50
2023-01-08T12:10:24.326Z,2.50
2023-01-08T12:11:24.615Z,2.40
2023-01-08T12:12:25.029Z,2.40
2023-01-08T12:13:25.276Z,3.00
2023-01-08T12:14:25.697Z,2.30
2023-01-08T12:15:26.942Z,2.50
2023-01-08T12:16:26.202Z,2.20
2023-01-08T12:17:26.447Z,2.40
2023-01-08T12:18:26.492Z,2.50
2023-01-08T12:19:26.733Z,2.90
2023-01-08T12:20:27.109Z,2.60
2023-01-08T12:21:27.343Z,2.40
2023-01-08T12:22:27.616Z,2.20
2023-01-08T12:23:27.863Z,2.50
2023-01-08T12:24:28.143Z,2.20
2023-01-08T12:25:28.364Z,2.30
2023-01-08T12:26:28.594Z,2.40
2023-01-08T12:27:48.666Z,2.30
2023-01-08T12:28:30.166Z,2.50
2023-01-08T12:29:29.471Z,2.60
2023-01-08T12:30:29.728Z,2.30
2023-01-08T12:31:30.017Z,2.60
2023-01-08T12:32:30.251Z,2.20
2023-01-08T12:33:30.531Z,2.40
2023-01-08T12:34:30.770Z,2.10
2023-01-08T12:35:31.095Z,2.50
2023-01-08T12:36:31.324Z,2.40
2023-01-08T12:37:31.931Z,2.90
2023-01-08T12:38:31.875Z,2.40
2023-01-08T12:39:32.123Z,2.20
2023-01-08T12:40:32.465Z,2.20
2023-01-08T12:41:32.791Z,2.40
2023-01-08T12:42:32.917Z,2.30
2023-01-08T12:43:33.816Z,2.30
2023-01-08T12:44:33.594Z,2.20
2023-01-08T12:45:33.955Z,2.20
2023-01-08T12:46:34.009Z,2.10
2023-01-08T12:47:34.421Z,2.50
2023-01-08T12:48:34.509Z,2.10
2023-01-08T12:49:34.762Z,2.10
2023-01-08T12:50:35.006Z,2.60
2023-01-08T12:51:35.237Z,3.10
2023-01-08T12:52:35.532Z,3.00
2023-01-08T12:53:35.752Z,3.00
2023-01-08T12:54:36.007Z,2.30
2023-01-08T12:55:36.245Z,2.30
2023-01-08T12:56:36.538Z,2.10
2023-01-08T12:57:36.765Z,2.00
2023-01-08T12:58:36.997Z,2.00
2023-01-08T12:59:37.270Z,2.00
2023-01-08T13:00:37.502Z,2.20
2023-01-08T13:01:37.898Z,2.00
2023-01-08T13:02:38.220Z,1.90
2023-01-08T13:03:38.403Z,2.20
2023-01-08T13:04:38.658Z,2.30
2023-01-08T13:05:38.905Z,2.20
2023-01-08T13:06:39.141Z,2.20
2023-01-08T13:07:39.407Z,2.00
2023-01-08T13:08:39.763Z,2.00
2023-01-08T13:09:39.949Z,2.10
2023-01-08T13:10:40.229Z,2.10
2023-01-08T13:11:40.470Z,2.00
2023-01-08T13:12:40.702Z,2.00
2023-01-08T13:13:41.126Z,2.00
2023-01-08T13:14:41.346Z,2.20
2023-01-08T13:15:41.590Z,1.80
2023-01-08T13:16:42.026Z,2.00
2023-01-08T13:17:42.156Z,1.90
2023-01-08T13:18:42.424Z,1.90
2023-01-08T13:19:42.675Z,2.00
2023-01-08T13:20:42.940Z,2.10
2023-01-08T13:21:43.253Z,2.10
2023-01-08T13:22:43.401Z,2.30